createdAt,value
2019-03-19T00:00:36.362Z,8.58
2019-03-19T00:03:10.030Z,6.05
2019-03-19T00:05:43.365Z,8.05
2019-03-19T00:08:16.681Z,7.83
2019-03-19T00:10:50.000Z,6.92
2019-03-19T00:13:23.339Z,5.72
2019-03-19T00:15:56.916Z,7.53
2019-03-19T00:18:30.304Z,7.40
2019-03-19T00:21:03.667Z,8.05
2019-03-19T00:23:37.032Z,8.38
2019-03-19T00:26:10.430Z,6.30
2019-03-19T00:28:43.824Z,10.13
2019-03-19T00:31:17.203Z,7.15
2019-03-19T00:33:50.564Z,8.78
2019-03-19T00:36:23.964Z,9.83
2019-03-19T00:38:57.358Z,10.70
2019-03-19T00:41:30.668Z,7.42
2019-03-19T00:44:04.018Z,7.08
2019-03-19T00:46:37.317Z,8.48
2019-03-19T00:49:10.647Z,7.12
2019-03-19T00:51:44.033Z,4.42
2019-03-19T00:54:18.466Z,7.50
2019-03-19T00:56:51.799Z,6.70
2019-03-19T00:59:25.146Z,7.45
2019-03-19T01:01:58.463Z,7.37
2019-03-19T01:04:32.020Z,5.12
2019-03-19T01:07:05.384Z,7.60
2019-03-19T01:09:38.938Z,6.33
2019-03-19T01:12:12.500Z,6.92
2019-03-19T01:14:45.816Z,9.10
2019-03-19T01:17:19.176Z,8.63
2019-03-19T01:19:52.475Z,8.23
2019-03-19T01:22:25.833Z,8.20
2019-03-19T01:24:59.141Z,5.35
2019-03-19T01:27:32.567Z,8.55
2019-03-19T01:30:11.091Z,4.75
2019-03-19T01:32:44.444Z,6.35
2019-03-19T01:35:18.748Z,5.65
2019-03-19T01:37:52.102Z,5.92
2019-03-19T01:40:25.416Z,6.08
2019-03-19T01:42:59.014Z,7.65
2019-03-19T01:45:32.322Z,6.35
2019-03-19T01:48:05.662Z,5.83
2019-03-19T01:50:39.079Z,6.35
2019-03-19T01:53:12.381Z,5.33
2019-03-19T01:55:45.550Z,4.62
2019-03-19T01:58:18.914Z,6.10
2019-03-19T02:00:52.294Z,4.92
2019-03-19T02:03:25.663Z,5.17
2019-03-19T02:05:58.997Z,5.65
2019-03-19T02:08:32.461Z,5.30
2019-03-19T02:11:05.871Z,5.45
2019-03-19T02:13:39.185Z,4.90
2019-03-19T02:16:12.525Z,5.87
2019-03-19T02:18:46.046Z,5.05
2019-03-19T02:21:19.379Z,4.45
2019-03-19T02:23:54.263Z,6.03
2019-03-19T02:26:28.630Z,5.53
2019-03-19T02:29:01.941Z,5.10
2019-03-19T02:31:35.272Z,5.87
2019-03-19T02:34:08.572Z,6.45
2019-03-19T02:36:41.915Z,4.72
2019-03-19T02:39:15.321Z,5.28
2019-03-19T02:41:49.043Z,4.65
2019-03-19T02:44:22.623Z,5.87
2019-03-19T02:46:56.045Z,4.90
2019-03-19T02:49:29.399Z,5.17
2019-03-19T02:52:02.873Z,3.72
2019-03-19T02:54:36.380Z,4.53
2019-03-19T02:57:09.687Z,6.35
2019-03-19T02:59:43.142Z,6.53
2019-03-19T03:02:16.479Z,5.87
2019-03-19T03:04:49.838Z,7.35
2019-03-19T03:07:23.149Z,5.87
2019-03-19T03:09:56.491Z,5.50
2019-03-19T03:12:29.945Z,3.95
2019-03-19T03:15:03.274Z,5.60
2019-03-19T03:17:38.271Z,4.67
2019-03-19T03:20:13.155Z,4.42
2019-03-19T03:22:46.502Z,3.67
2019-03-19T03:25:19.793Z,4.33
2019-03-19T03:27:53.149Z,5.45
2019-03-19T03:30:26.562Z,5.42
2019-03-19T03:32:59.899Z,4.67
2019-03-19T03:35:33.278Z,4.60
2019-03-19T03:38:07.702Z,4.87
2019-03-19T03:40:41.430Z,4.58
2019-03-19T03:43:15.125Z,4.30
2019-03-19T03:45:48.503Z,4.22
2019-03-19T03:48:21.932Z,6.37
2019-03-19T03:50:55.355Z,5.25
2019-03-19T03:53:28.674Z,5.35
2019-03-19T03:56:02.013Z,5.05
2019-03-19T03:58:35.352Z,6.33
2019-03-19T04:01:10.311Z,4.62
2019-03-19T04:03:45.249Z,6.37
2019-03-19T04:06:18.586Z,6.67
2019-03-19T04:08:51.946Z,4.28
2019-03-19T04:11:25.436Z,4.85
2019-03-19T04:13:58.740Z,4.20
2019-03-19T04:16:32.434Z,5.83
2019-03-19T04:19:05.644Z,4.72
2019-03-19T04:21:38.981Z,7.05
2019-03-19T04:24:12.331Z,4.47
2019-03-19T04:26:45.848Z,5.08
2019-03-19T04:29:19.166Z,5.12
2019-03-19T04:31:52.731Z,4.47
2019-03-19T04:34:26.053Z,5.28
2019-03-19T04:36:59.472Z,4.10
2019-03-19T04:39:33.032Z,4.45
2019-03-19T04:42:06.480Z,5.67
2019-03-19T04:44:39.828Z,4.78
2019-03-19T04:47:13.308Z,5.05
2019-03-19T04:49:46.609Z,7.05
2019-03-19T04:52:19.987Z,4.17
2019-03-19T04:54:53.296Z,4.03
2019-03-19T04:57:27.318Z,6.50
2019-03-19T05:00:00.800Z,5.65
2019-03-19T05:02:34.163Z,6.17
2019-03-19T05:05:09.247Z,6.08
2019-03-19T05:07:42.627Z,5.95
2019-03-19T05:10:18.176Z,3.95
2019-03-19T05:12:51.559Z,8.60
2019-03-19T05:15:24.868Z,4.60
2019-03-19T05:17:58.194Z,4.33
2019-03-19T05:20:31.348Z,6.00
2019-03-19T05:23:04.791Z,4.92
2019-03-19T05:25:38.257Z,4.97
2019-03-19T05:28:12.062Z,4.28
2019-03-19T05:30:45.377Z,5.55
2019-03-19T05:33:19.574Z,4.90
2019-03-19T05:35:53.056Z,5.45
2019-03-19T05:38:26.369Z,4.95
2019-03-19T05:40:59.743Z,4.67
2019-03-19T05:43:33.083Z,3.77
2019-03-19T05:46:06.534Z,4.47
2019-03-19T05:48:40.036Z,5.28
2019-03-19T05:51:14.594Z,6.17
2019-03-19T05:53:47.993Z,5.10
2019-03-19T05:56:21.390Z,5.03
2019-03-19T05:58:54.725Z,3.22
2019-03-19T06:01:28.142Z,6.08
2019-03-19T06:04:01.453Z,6.22
2019-03-19T06:06:34.989Z,4.67
2019-03-19T06:09:08.534Z,5.35
2019-03-19T06:11:42.182Z,7.08
2019-03-19T06:14:15.490Z,5.47
2019-03-19T06:16:48.912Z,6.22
2019-03-19T06:19:22.589Z,4.80
2019-03-19T06:21:56.832Z,4.55
2019-03-19T06:24:31.350Z,6.75
2019-03-19T06:27:04.956Z,5.55
2019-03-19T06:29:38.370Z,4.95
2019-03-19T06:32:12.095Z,8.30
2019-03-19T06:34:45.907Z,5.20
2019-03-19T06:37:20.442Z,4.80
2019-03-19T06:39:54.171Z,7.45
2019-03-19T06:42:28.387Z,6.67
2019-03-19T06:45:01.797Z,6.67
2019-03-19T06:47:35.344Z,6.97
2019-03-19T06:50:11.091Z,6.17
2019-03-19T06:52:44.564Z,7.30
2019-03-19T06:55:18.787Z,9.98
2019-03-19T06:57:52.379Z,5.03
2019-03-19T07:00:27.268Z,8.08
2019-03-19T07:03:00.804Z,8.25
2019-03-19T07:05:34.467Z,7.33
2019-03-19T07:08:07.808Z,9.98
2019-03-19T07:10:41.277Z,7.33
2019-03-19T07:13:14.815Z,8.33
2019-03-19T07:15:48.094Z,7.53
2019-03-19T07:18:21.564Z,7.28
2019-03-19T07:20:54.878Z,8.08
2019-03-19T07:23:28.241Z,9.23
2019-03-19T07:26:03.389Z,7.95
2019-03-19T07:28:38.683Z,9.53
2019-03-19T07:31:12.567Z,8.15
2019-03-19T07:33:46.378Z,8.90
2019-03-19T07:36:19.857Z,9.73
2019-03-19T07:38:53.305Z,11.93
2019-03-19T07:41:26.856Z,7.25
2019-03-19T07:44:00.341Z,7.00
2019-03-19T07:46:33.954Z,12.33
2019-03-19T07:49:07.344Z,6.70
2019-03-19T07:51:40.904Z,11.70
2019-03-19T07:54:14.229Z,8.13
2019-03-19T07:56:47.760Z,9.25
2019-03-19T07:59:21.301Z,8.53
2019-03-19T08:01:54.689Z,7.70
2019-03-19T08:04:29.167Z,10.40
2019-03-19T08:07:04.145Z,9.13
2019-03-19T08:09:37.641Z,8.68
2019-03-19T08:12:12.343Z,11.12
2019-03-19T08:14:45.797Z,10.63
2019-03-19T08:17:18.978Z,7.10
2019-03-19T08:19:52.375Z,8.45
2019-03-19T08:22:26.050Z,9.30
2019-03-19T08:24:59.641Z,8.03
2019-03-19T08:27:33.059Z,10.65
2019-03-19T08:30:12.202Z,10.72
2019-03-19T08:32:45.828Z,8.38
2019-03-19T08:35:20.799Z,10.10
2019-03-19T08:37:54.167Z,10.05
2019-03-19T08:40:27.479Z,8.30
2019-03-19T08:43:02.457Z,10.08
2019-03-19T08:45:35.797Z,8.00
2019-03-19T08:48:09.156Z,11.03
2019-03-19T08:50:42.589Z,9.65
2019-03-19T08:53:15.945Z,10.13
2019-03-19T08:55:50.865Z,12.98
2019-03-19T08:58:24.237Z,8.00
2019-03-19T09:00:57.478Z,16.87
2019-03-19T09:03:30.883Z,16.60
2019-03-19T09:06:04.221Z,16.42
2019-03-19T09:08:37.651Z,12.00
2019-03-19T09:11:10.974Z,14.83
2019-03-19T09:13:44.569Z,11.68
2019-03-19T09:16:17.866Z,13.58
2019-03-19T09:18:51.266Z,15.25
2019-03-19T09:21:24.581Z,14.45
2019-03-19T09:23:58.031Z,11.73
2019-03-19T09:26:31.525Z,14.60
2019-03-19T09:29:05.136Z,10.85
2019-03-19T09:31:38.425Z,13.32
2019-03-19T09:34:11.814Z,11.83
2019-03-19T09:36:45.138Z,12.18
2019-03-19T09:39:18.642Z,14.28
2019-03-19T09:41:51.959Z,11.08
2019-03-19T09:44:25.372Z,10.18
2019-03-19T09:46:58.694Z,13.05
2019-03-19T09:49:32.191Z,12.75
2019-03-19T09:52:05.513Z,11.10
2019-03-19T09:54:38.931Z,10.30
2019-03-19T09:57:13.713Z,12.07
2019-03-19T09:59:47.214Z,16.27
2019-03-19T10:02:20.747Z,14.80
2019-03-19T10:04:55.162Z,13.98
2019-03-19T10:07:28.480Z,12.82
2019-03-19T10:10:02.332Z,12.63
2019-03-19T10:12:35.812Z,15.00
2019-03-19T10:15:10.879Z,13.80
2019-03-19T10:17:44.206Z,16.65
2019-03-19T10:20:20.897Z,15.53
2019-03-19T10:22:54.463Z,12.90
2019-03-19T10:25:29.488Z,15.90
2019-03-19T10:28:02.910Z,19.15
2019-03-19T10:30:36.316Z,24.45
2019-03-19T10:33:10.972Z,19.17
2019-03-19T10:35:44.511Z,15.65
2019-03-19T10:38:18.134Z,16.82
2019-03-19T10:40:51.534Z,15.10
2019-03-19T10:43:25.339Z,16.02
2019-03-19T10:45:58.737Z,15.90
2019-03-19T10:48:32.206Z,11.18
2019-03-19T10:51:05.610Z,12.70
2019-03-19T10:53:38.970Z,10.30
2019-03-19T10:56:12.291Z,12.63
2019-03-19T10:58:45.986Z,15.03
2019-03-19T11:01:19.400Z,12.85
2019-03-19T11:03:52.833Z,12.75
2019-03-19T11:06:26.315Z,12.03
2019-03-19T11:08:59.788Z,13.72
2019-03-19T11:11:33.222Z,12.95
2019-03-19T11:14:06.898Z,11.65
2019-03-19T11:16:40.269Z,13.43
2019-03-19T11:19:13.594Z,10.82
2019-03-19T11:21:47.165Z,14.90
2019-03-19T11:24:20.641Z,10.63
2019-03-19T11:26:54.170Z,9.38
2019-03-19T11:29:27.689Z,10.53
2019-03-19T11:32:01.181Z,7.35
2019-03-19T11:34:34.510Z,10.08
2019-03-19T11:37:07.851Z,9.73
2019-03-19T11:39:41.279Z,8.08
2019-03-19T11:42:14.699Z,9.05
2019-03-19T11:44:48.120Z,9.03
2019-03-19T11:47:21.529Z,10.23
2019-03-19T11:49:54.897Z,8.13
2019-03-19T11:52:28.060Z,5.78
2019-03-19T11:55:01.475Z,7.35
2019-03-19T11:57:34.691Z,6.42
2019-03-19T12:00:25.166Z,4.78
2019-03-19T12:02:58.446Z,7.58
2019-03-19T12:05:31.947Z,7.75
2019-03-19T12:08:05.378Z,8.18
2019-03-19T12:10:38.814Z,6.28
2019-03-19T12:13:12.154Z,5.80
2019-03-19T12:15:45.546Z,6.00
2019-03-19T12:18:20.066Z,5.83
2019-03-19T12:20:53.464Z,4.58
2019-03-19T12:23:26.945Z,4.97
2019-03-19T12:26:00.642Z,7.25
2019-03-19T12:28:39.554Z,4.33
2019-03-19T12:31:09.238Z,5.87
2019-03-19T12:33:42.681Z,5.97
2019-03-19T12:36:16.034Z,5.10
2019-03-19T12:38:49.438Z,4.72
2019-03-19T12:41:22.768Z,4.20
2019-03-19T12:43:56.273Z,5.10
2019-03-19T12:46:29.673Z,5.85
2019-03-19T12:49:03.129Z,5.75
2019-03-19T12:51:37.547Z,5.90
2019-03-19T12:54:11.047Z,5.83
2019-03-19T12:56:44.373Z,4.80
2019-03-19T12:59:20.423Z,6.00
2019-03-19T13:01:53.146Z,4.20
2019-03-19T13:04:26.706Z,6.62
2019-03-19T13:07:00.218Z,5.00
2019-03-19T13:09:33.992Z,3.62
2019-03-19T13:12:07.336Z,4.92
2019-03-19T13:14:40.733Z,4.03
2019-03-19T13:17:14.067Z,6.25
2019-03-19T13:19:47.507Z,4.85
2019-03-19T13:22:20.878Z,7.97
2019-03-19T13:24:54.422Z,3.95
2019-03-19T13:27:28.011Z,7.58
2019-03-19T13:30:01.458Z,4.00
2019-03-19T13:32:34.853Z,5.05
2019-03-19T13:35:08.868Z,5.65
2019-03-19T13:37:42.268Z,4.92
2019-03-19T13:40:16.660Z,4.50
2019-03-19T13:42:50.029Z,5.25
2019-03-19T13:45:23.984Z,3.83
2019-03-19T13:47:57.272Z,3.20
2019-03-19T13:50:30.702Z,9.10
2019-03-19T13:53:04.406Z,3.75
2019-03-19T13:55:37.911Z,4.75
2019-03-19T13:58:11.301Z,6.22
2019-03-19T14:00:55.100Z,3.10
2019-03-19T14:03:19.735Z,3.20
2019-03-19T14:05:53.080Z,5.15
2019-03-19T14:08:26.504Z,4.75
2019-03-19T14:10:59.856Z,4.33
2019-03-19T14:13:34.327Z,3.83
2019-03-19T14:16:08.046Z,3.62
2019-03-19T14:18:41.376Z,2.77
2019-03-19T14:21:14.998Z,3.45
2019-03-19T14:23:48.321Z,3.22
2019-03-19T14:26:21.679Z,2.90
2019-03-19T14:28:55.288Z,3.60
2019-03-19T14:31:28.839Z,4.12
2019-03-19T14:34:02.865Z,2.77
2019-03-19T14:36:36.401Z,5.05
2019-03-19T14:39:09.747Z,5.22
2019-03-19T14:41:45.585Z,3.65
2019-03-19T14:44:18.344Z,7.58
2019-03-19T14:46:51.694Z,6.17
2019-03-19T14:49:25.333Z,3.60
2019-03-19T14:51:58.676Z,5.60
2019-03-19T14:54:32.226Z,5.28
2019-03-19T14:57:05.995Z,10.05
2019-03-19T14:59:39.578Z,8.63
2019-03-19T15:02:13.516Z,3.72
2019-03-19T15:04:47.564Z,8.55
2019-03-19T15:07:21.091Z,5.83
2019-03-19T15:09:54.878Z,4.90
2019-03-19T15:12:28.299Z,7.03
2019-03-19T15:15:01.869Z,4.28
2019-03-19T15:17:35.843Z,3.70
2019-03-19T15:20:11.986Z,6.20
2019-03-19T15:22:45.567Z,4.15
2019-03-19T15:25:19.000Z,6.78
2019-03-19T15:27:52.817Z,4.95
2019-03-19T15:30:26.303Z,5.90
2019-03-19T15:33:00.103Z,8.23
2019-03-19T15:35:34.158Z,5.55
2019-03-19T15:38:07.551Z,3.77
2019-03-19T15:40:41.887Z,2.90
2019-03-19T15:43:18.892Z,6.03
2019-03-19T15:45:53.112Z,7.00
2019-03-19T15:48:26.533Z,5.42
2019-03-19T15:51:01.016Z,9.08
2019-03-19T15:53:35.450Z,6.83
2019-03-19T15:56:08.864Z,4.03
2019-03-19T15:58:42.859Z,4.03
2019-03-19T16:01:17.195Z,5.28
2019-03-19T16:03:50.834Z,3.75
2019-03-19T16:06:24.307Z,4.47
2019-03-19T16:08:57.773Z,4.62
2019-03-19T16:11:31.473Z,5.40
2019-03-19T16:14:05.119Z,6.30
2019-03-19T16:16:38.791Z,3.33
2019-03-19T16:19:12.715Z,7.45
2019-03-19T16:21:47.606Z,5.95
2019-03-19T16:24:22.601Z,3.45
2019-03-19T16:26:56.551Z,4.75
2019-03-19T16:29:30.119Z,5.65
2019-03-19T16:32:03.545Z,6.72
2019-03-19T16:34:38.553Z,7.45
2019-03-19T16:37:13.846Z,3.00
2019-03-19T16:39:47.299Z,4.65
2019-03-19T16:42:20.965Z,4.50
2019-03-19T16:44:54.352Z,5.20
2019-03-19T16:47:29.157Z,5.05
2019-03-19T16:50:04.841Z,4.55
2019-03-19T16:52:38.449Z,5.53
2019-03-19T16:55:14.795Z,4.12
2019-03-19T16:57:48.477Z,3.40
2019-03-19T17:00:27.471Z,4.53
2019-03-19T17:03:00.796Z,3.30
2019-03-19T17:05:34.155Z,5.67
2019-03-19T17:08:08.002Z,4.00
2019-03-19T17:10:42.969Z,5.50
2019-03-19T17:13:16.372Z,5.40
2019-03-19T17:15:49.790Z,4.58
2019-03-19T17:18:23.263Z,6.33
2019-03-19T17:20:56.698Z,6.45
2019-03-19T17:23:30.233Z,4.47
2019-03-19T17:26:03.735Z,4.62
2019-03-19T17:28:37.314Z,3.35
2019-03-19T17:31:10.536Z,5.53
2019-03-19T17:33:44.049Z,3.95
2019-03-19T17:36:17.381Z,5.80
2019-03-19T17:38:50.573Z,4.97
2019-03-19T17:41:23.938Z,5.15
2019-03-19T17:43:57.944Z,4.65
2019-03-19T17:46:31.296Z,7.00
2019-03-19T17:49:04.603Z,4.28
2019-03-19T17:51:37.942Z,4.28
2019-03-19T17:54:11.688Z,4.45
2019-03-19T17:56:55.382Z,4.75
2019-03-19T17:59:28.776Z,3.17
2019-03-19T18:02:02.473Z,4.25
2019-03-19T18:04:35.882Z,3.47
2019-03-19T18:07:09.375Z,2.77
2019-03-19T18:09:42.646Z,5.15
2019-03-19T18:12:16.042Z,4.00
2019-03-19T18:14:49.250Z,6.08
2019-03-19T18:17:22.941Z,4.22
2019-03-19T18:19:56.553Z,6.90
2019-03-19T18:22:29.986Z,4.87
2019-03-19T18:25:04.261Z,5.25
2019-03-19T18:27:37.616Z,3.90
2019-03-19T18:30:15.303Z,5.60
2019-03-19T18:32:48.728Z,4.75
2019-03-19T18:35:22.050Z,7.85
2019-03-19T18:37:55.517Z,7.37
2019-03-19T18:40:30.260Z,4.33
2019-03-19T18:43:03.776Z,4.85
2019-03-19T18:45:37.060Z,4.80
2019-03-19T18:48:10.235Z,6.83
2019-03-19T18:50:43.458Z,4.72
2019-03-19T18:53:16.812Z,3.87
2019-03-19T18:55:50.187Z,4.30
2019-03-19T18:58:25.478Z,4.05
2019-03-19T19:01:02.447Z,8.10
2019-03-19T19:03:35.806Z,4.47
2019-03-19T19:06:09.123Z,3.27
2019-03-19T19:08:42.628Z,4.92
2019-03-19T19:11:16.259Z,2.90
2019-03-19T19:13:51.172Z,2.62
2019-03-19T19:16:24.477Z,5.05
2019-03-19T19:18:59.415Z,4.40
2019-03-19T19:21:32.812Z,2.62
2019-03-19T19:24:06.500Z,6.05
2019-03-19T19:26:39.813Z,4.10
2019-03-19T19:29:13.188Z,4.35
2019-03-19T19:31:46.505Z,1.75
2019-03-19T19:34:19.878Z,4.95
2019-03-19T19:36:53.286Z,3.72
2019-03-19T19:39:26.618Z,2.17
2019-03-19T19:41:59.934Z,4.47
2019-03-19T19:44:33.504Z,4.53
2019-03-19T19:47:06.863Z,4.62
2019-03-19T19:49:40.218Z,3.67
2019-03-19T19:52:13.435Z,5.22
2019-03-19T19:54:47.039Z,4.78
2019-03-19T19:57:20.605Z,5.17
2019-03-19T19:59:54.032Z,3.47
2019-03-19T20:02:27.575Z,5.50
2019-03-19T20:05:03.334Z,4.70
2019-03-19T20:07:36.867Z,3.62
2019-03-19T20:10:16.284Z,6.75
2019-03-19T20:12:49.747Z,3.62
2019-03-19T20:15:23.245Z,5.30
2019-03-19T20:17:56.927Z,4.33
2019-03-19T20:20:32.273Z,4.17
2019-03-19T20:23:05.518Z,3.83
2019-03-19T20:25:38.993Z,5.33
2019-03-19T20:28:12.404Z,3.52
2019-03-19T20:30:45.816Z,4.60
2019-03-19T20:33:25.010Z,3.50
2019-03-19T20:35:59.130Z,4.30
2019-03-19T20:38:32.465Z,4.35
2019-03-19T20:41:05.855Z,3.58
2019-03-19T20:43:40.323Z,3.92
2019-03-19T20:46:13.821Z,5.03
2019-03-19T20:48:47.335Z,3.22
2019-03-19T20:51:20.718Z,3.25
2019-03-19T20:53:54.343Z,5.22
2019-03-19T20:56:27.817Z,3.98
2019-03-19T20:59:01.205Z,3.47
2019-03-19T21:01:34.526Z,2.92
2019-03-19T21:04:07.944Z,6.28
2019-03-19T21:06:41.421Z,4.25
2019-03-19T21:09:15.013Z,2.85
2019-03-19T21:11:48.362Z,2.92
2019-03-19T21:14:22.190Z,5.42
2019-03-19T21:16:57.497Z,3.98
2019-03-19T21:19:30.648Z,4.10
2019-03-19T21:22:03.995Z,3.70
2019-03-19T21:24:37.348Z,4.12
2019-03-19T21:27:10.766Z,4.15
2019-03-19T21:29:44.134Z,5.83
2019-03-19T21:32:17.504Z,5.20
2019-03-19T21:34:51.903Z,3.85
2019-03-19T21:37:25.452Z,3.83
2019-03-19T21:39:58.958Z,5.42
2019-03-19T21:42:32.321Z,4.58
2019-03-19T21:45:10.550Z,4.60
2019-03-19T21:47:44.176Z,5.25
2019-03-19T21:50:19.014Z,2.90
2019-03-19T21:52:54.036Z,5.42
2019-03-19T21:55:27.468Z,5.60
2019-03-19T21:58:00.890Z,5.83
2019-03-19T22:00:34.448Z,5.55
2019-03-19T22:03:08.148Z,5.67
2019-03-19T22:05:43.490Z,4.15
2019-03-19T22:08:16.913Z,5.65
2019-03-19T22:10:50.376Z,7.70
2019-03-19T22:13:23.693Z,5.05
2019-03-19T22:15:57.258Z,5.62
2019-03-19T22:18:30.673Z,6.47
2019-03-19T22:21:04.067Z,7.50
2019-03-19T22:23:40.631Z,5.15
2019-03-19T22:26:15.482Z,6.67
2019-03-19T22:28:48.853Z,6.12
2019-03-19T22:31:22.195Z,7.60
2019-03-19T22:33:55.766Z,6.83
2019-03-19T22:36:29.284Z,6.75
2019-03-19T22:39:02.696Z,5.17
2019-03-19T22:41:37.651Z,7.08
2019-03-19T22:44:10.966Z,6.00
2019-03-19T22:46:44.470Z,5.12
2019-03-19T22:49:17.909Z,7.50
2019-03-19T22:51:51.414Z,6.65
2019-03-19T22:54:24.751Z,4.83
2019-03-19T22:56:58.083Z,7.10
2019-03-19T22:59:31.563Z,8.15
2019-03-19T23:02:05.156Z,8.85
2019-03-19T23:04:38.468Z,6.37
2019-03-19T23:07:11.828Z,11.33
2019-03-19T23:09:45.171Z,6.33
2019-03-19T23:12:20.109Z,8.68
2019-03-19T23:14:53.594Z,11.38
2019-03-19T23:17:27.061Z,7.72
2019-03-19T23:20:00.393Z,5.55
2019-03-19T23:22:33.883Z,7.90
2019-03-19T23:25:07.339Z,6.78
2019-03-19T23:27:41.069Z,6.22
2019-03-19T23:30:22.434Z,5.00
2019-03-19T23:32:55.786Z,5.58
2019-03-19T23:35:29.659Z,7.58
2019-03-19T23:38:03.867Z,8.40
2019-03-19T23:40:37.255Z,6.33
2019-03-19T23:43:11.182Z,8.08
2019-03-19T23:45:44.770Z,9.25
2019-03-19T23:48:18.623Z,7.70
2019-03-19T23:50:52.316Z,7.42
2019-03-19T23:53:25.997Z,7.00
2019-03-19T23:56:00.409Z,6.22
2019-03-19T23:58:34.481Z,7.95
